Terminal Aerodrome Forecast
Issued by NWS

Current Version | Previous Version | Text Only | Print | Product List | Glossary Off
Versions: 1 2 3 4 5 6 7 8 9 10 11 12 13 14 15 16 17 18 19

000
FTUS41 KILN 231700
TAFLUK
TAF
KLUK 231730Z 2318/2418 35005KT P6SM FEW045
     FM240000 00000KT P6SM BKN200
     FM240600 07003KT P6SM OVC120
     FM241500 12009KT P6SM SCT120 BKN200=

USA.gov is the U.S. government's official web portal to all federal, state and local government web resources and services.